createdAt,value
2022-11-24T00:00:30.774Z,6.60
2022-11-24T00:05:53.704Z,7.20
2022-11-24T00:10:56.695Z,6.00
2022-11-24T00:16:11.914Z,4.90
2022-11-24T00:21:16.790Z,6.70
2022-11-24T00:26:34.845Z,9.60
2022-11-24T00:31:40.297Z,6.30
2022-11-24T00:36:43.630Z,9.00
2022-11-24T00:41:46.615Z,7.50
2022-11-24T00:46:50.117Z,7.10
2022-11-24T00:51:53.316Z,11.30
2022-11-24T00:56:56.371Z,5.70
2022-11-24T01:01:59.368Z,5.50
2022-11-24T01:07:02.359Z,6.30
2022-11-24T01:12:05.619Z,9.60
2022-11-24T01:17:08.640Z,8.70
2022-11-24T01:22:11.630Z,7.70
2022-11-24T01:27:14.683Z,5.50
2022-11-24T01:32:17.638Z,9.00
2022-11-24T01:37:20.709Z,7.10
2022-11-24T01:42:23.732Z,8.00
2022-11-24T01:47:29.685Z,5.30
2022-11-24T01:52:42.154Z,8.20
2022-11-24T01:57:51.929Z,7.30
2022-11-24T02:02:55.018Z,8.80
2022-11-24T02:08:01.401Z,6.10
2022-11-24T02:13:05.557Z,6.80
2022-11-24T02:18:08.791Z,6.70
2022-11-24T02:23:26.485Z,6.00
2022-11-24T02:28:31.071Z,6.70
2022-11-24T02:33:35.219Z,9.00
2022-11-24T02:38:38.350Z,6.40
2022-11-24T02:43:49.316Z,6.70
2022-11-24T02:48:52.385Z,6.30
2022-11-24T02:53:55.356Z,8.30
2022-11-24T02:58:58.583Z,10.00
2022-11-24T03:04:01.570Z,6.30
2022-11-24T03:09:05.714Z,10.10
2022-11-24T03:14:09.073Z,10.40
2022-11-24T03:19:12.187Z,8.00
2022-11-24T03:24:15.218Z,7.00
2022-11-24T03:29:18.328Z,11.30
2022-11-24T03:34:21.374Z,11.00
2022-11-24T03:39:24.417Z,9.10
2022-11-24T03:44:27.430Z,7.40
2022-11-24T03:49:30.707Z,12.50
2022-11-24T03:54:34.047Z,8.00
2022-11-24T03:59:37.183Z,6.70
2022-11-24T04:04:40.566Z,6.40
2022-11-24T04:09:43.569Z,8.40
2022-11-24T04:14:46.584Z,7.00
2022-11-24T04:19:49.615Z,6.30
2022-11-24T04:24:52.631Z,10.40
2022-11-24T04:29:55.701Z,9.20
2022-11-24T04:34:58.669Z,7.90
2022-11-24T04:40:01.687Z,8.90
2022-11-24T04:45:06.073Z,7.40
2022-11-24T04:50:09.525Z,7.00
2022-11-24T04:55:12.571Z,6.80
2022-11-24T05:00:15.931Z,5.70
2022-11-24T05:05:19.215Z,6.50
2022-11-24T05:10:37.459Z,8.50
2022-11-24T05:15:41.969Z,7.30
2022-11-24T05:20:45.198Z,7.50
2022-11-24T05:25:48.177Z,5.20
2022-11-24T05:30:51.125Z,5.20
2022-11-24T05:35:55.341Z,6.30
2022-11-24T05:41:03.199Z,6.50
2022-11-24T05:46:06.250Z,5.60
2022-11-24T05:51:09.659Z,5.70
2022-11-24T05:56:12.500Z,7.40
2022-11-24T06:01:15.619Z,7.00
2022-11-24T06:06:18.440Z,5.70
2022-11-24T06:11:21.684Z,5.50
2022-11-24T06:16:24.590Z,6.70
2022-11-24T06:21:28.292Z,8.20
2022-11-24T06:26:31.102Z,6.60
2022-11-24T06:31:33.989Z,5.60
2022-11-24T06:36:37.544Z,9.10
2022-11-24T06:41:40.713Z,5.90
2022-11-24T06:46:43.465Z,4.80
2022-11-24T06:51:46.272Z,8.20
2022-11-24T06:56:49.086Z,5.60
2022-11-24T07:01:52.109Z,7.40
2022-11-24T07:06:54.873Z,5.70
2022-11-24T07:11:58.285Z,4.30
2022-11-24T07:17:02.634Z,5.20
2022-11-24T07:22:05.464Z,7.90
2022-11-24T07:27:08.218Z,5.80
2022-11-24T07:32:11.037Z,6.80
2022-11-24T07:37:13.860Z,5.90
2022-11-24T07:42:16.641Z,6.10
2022-11-24T07:47:19.360Z,8.30
2022-11-24T07:52:22.155Z,6.50
2022-11-24T07:57:24.901Z,9.00
2022-11-24T08:02:27.688Z,8.10
2022-11-24T08:07:30.630Z,7.50
2022-11-24T08:12:33.697Z,6.20
2022-11-24T08:17:36.770Z,7.00
2022-11-24T08:22:39.575Z,6.70
2022-11-24T08:27:42.371Z,5.60
2022-11-24T08:32:45.150Z,9.00
2022-11-24T08:37:47.881Z,8.30
2022-11-24T08:42:50.664Z,6.60
2022-11-24T08:47:54.736Z,7.80
2022-11-24T08:52:57.526Z,8.70
2022-11-24T08:58:00.307Z,4.00
2022-11-24T09:03:03.092Z,7.20
2022-11-24T09:08:06.246Z,6.50
2022-11-24T09:13:09.634Z,9.00
2022-11-24T09:18:12.457Z,8.60
2022-11-24T09:23:15.145Z,7.90
2022-11-24T09:28:17.840Z,9.40
2022-11-24T09:33:20.653Z,7.80
2022-11-24T09:38:23.617Z,10.60
2022-11-24T09:43:52.827Z,10.00
2022-11-24T09:48:58.632Z,10.00
2022-11-24T09:54:09.469Z,8.40
2022-11-24T09:59:18.361Z,10.10
2022-11-24T10:04:44.793Z,8.80
2022-11-24T10:09:56.485Z,6.50
2022-11-24T10:15:06.269Z,5.20
2022-11-24T10:20:41.505Z,7.70
2022-11-24T10:25:56.576Z,9.90
2022-11-24T10:31:28.880Z,8.00
2022-11-24T10:36:38.198Z,10.80
2022-11-24T10:41:52.735Z,13.00
2022-11-24T10:46:55.607Z,11.30
2022-11-24T10:52:02.192Z,11.90
2022-11-24T10:57:05.088Z,8.90
2022-11-24T11:02:29.181Z,11.50
2022-11-24T11:07:32.146Z,12.90
2022-11-24T11:12:44.075Z,13.10
2022-11-24T11:17:50.596Z,9.00
2022-11-24T11:22:55.960Z,10.50
2022-11-24T11:28:22.114Z,9.30
2022-11-24T11:38:54.086Z,6.00
2022-11-24T11:44:26.146Z,12.30
2022-11-24T11:49:28.975Z,12.30
2022-11-24T11:55:01.107Z,11.00
2022-11-24T12:00:09.991Z,12.60
2022-11-24T12:05:22.591Z,10.70
2022-11-24T12:10:25.419Z,7.60
2022-11-24T12:15:36.692Z,7.50
2022-11-24T12:20:39.511Z,10.50
2022-11-24T12:25:52.671Z,7.30
2022-11-24T12:31:07.298Z,11.10
2022-11-24T12:36:28.120Z,12.80
2022-11-24T12:41:47.792Z,8.50
2022-11-24T12:47:02.830Z,18.90
2022-11-24T12:52:46.785Z,11.00
2022-11-24T12:58:09.456Z,10.50
2022-11-24T13:03:53.747Z,11.50
2022-11-24T13:08:56.981Z,17.00
2022-11-24T13:14:03.030Z,11.90
2022-11-24T13:19:26.424Z,9.60
2022-11-24T13:24:32.137Z,9.70
2022-11-24T13:29:36.899Z,13.60
2022-11-24T13:34:40.064Z,10.60
2022-11-24T13:40:03.288Z,14.00
2022-11-24T13:45:46.878Z,11.60
2022-11-24T13:50:49.889Z,9.40
2022-11-24T13:55:59.352Z,10.60
2022-11-24T14:01:24.347Z,10.70
2022-11-24T14:06:51.078Z,7.70
2022-11-24T14:12:06.314Z,10.80
2022-11-24T14:17:18.290Z,15.50
2022-11-24T14:22:23.130Z,6.90
2022-11-24T14:27:32.434Z,16.50
2022-11-24T14:32:35.916Z,16.00
2022-11-24T14:37:38.722Z,14.50
2022-11-24T14:42:41.500Z,13.60
2022-11-24T14:47:45.315Z,9.00
2022-11-24T14:52:56.562Z,10.90
2022-11-24T14:58:00.042Z,6.60
2022-11-24T15:03:02.843Z,11.30
2022-11-24T15:08:05.771Z,12.30
2022-11-24T15:13:23.595Z,15.30
2022-11-24T15:18:31.400Z,15.10
2022-11-24T15:23:35.538Z,13.30
2022-11-24T15:28:41.403Z,9.60
2022-11-24T15:33:44.758Z,15.00
2022-11-24T15:38:52.464Z,15.60
2022-11-24T15:44:01.312Z,16.50
2022-11-24T15:49:04.755Z,15.40
2022-11-24T15:54:13.748Z,14.20
2022-11-24T15:59:20.747Z,14.90
2022-11-24T16:04:24.139Z,11.40
2022-11-24T16:09:26.877Z,15.50
2022-11-24T16:14:30.261Z,19.50
2022-11-24T16:19:36.180Z,15.50
2022-11-24T16:24:43.417Z,10.10
2022-11-24T16:29:46.419Z,11.50
2022-11-24T16:34:49.143Z,14.60
2022-11-24T16:39:51.871Z,15.20
2022-11-24T16:44:55.093Z,17.30
2022-11-24T16:49:57.936Z,17.00
2022-11-24T16:55:01.715Z,15.90
2022-11-24T17:00:06.090Z,15.40
2022-11-24T17:05:09.705Z,9.60
2022-11-24T17:10:12.686Z,11.00
2022-11-24T17:15:32.736Z,14.20
2022-11-24T17:20:36.274Z,11.90
2022-11-24T17:25:39.490Z,12.00
2022-11-24T17:30:42.723Z,14.40
2022-11-24T17:35:45.568Z,10.20
2022-11-24T17:40:48.379Z,17.60
2022-11-24T17:46:00.530Z,19.50
2022-11-24T17:51:10.130Z,14.40
2022-11-24T17:56:14.905Z,10.20
2022-11-24T18:01:17.804Z,10.90
2022-11-24T18:06:25.048Z,17.60
2022-11-24T18:11:31.707Z,16.00
2022-11-24T18:16:35.352Z,13.50
2022-11-24T18:21:40.576Z,13.00
2022-11-24T18:26:43.807Z,12.10
2022-11-24T18:31:46.561Z,12.80
2022-11-24T18:36:52.120Z,16.80
2022-11-24T18:41:54.917Z,15.90
2022-11-24T18:46:57.824Z,17.30
2022-11-24T18:52:01.109Z,19.10
2022-11-24T18:57:04.055Z,17.20
2022-11-24T19:02:06.828Z,11.40
2022-11-24T19:07:09.628Z,16.50
2022-11-24T19:12:12.418Z,21.80
2022-11-24T19:17:15.116Z,24.10
2022-11-24T19:22:17.937Z,13.50
2022-11-24T19:27:21.900Z,17.80
2022-11-24T19:32:24.636Z,16.20
2022-11-24T19:37:30.403Z,16.10
2022-11-24T19:42:33.401Z,18.80
2022-11-24T19:47:36.117Z,21.60
2022-11-24T19:52:38.821Z,22.40
2022-11-24T19:57:42.005Z,19.00
2022-11-24T20:02:44.874Z,19.60
2022-11-24T20:07:47.781Z,14.40
2022-11-24T20:12:50.534Z,18.20
2022-11-24T20:17:53.269Z,13.50
2022-11-24T20:22:55.973Z,18.80
2022-11-24T20:27:58.748Z,21.60
2022-11-24T20:33:01.451Z,19.30
2022-11-24T20:43:24.624Z,11.80
2022-11-24T20:48:27.347Z,13.00
2022-11-24T20:53:30.135Z,18.40
2022-11-24T20:58:34.789Z,18.50
2022-11-24T21:03:42.977Z,14.60
2022-11-24T21:08:46.372Z,17.20
2022-11-24T21:13:50.361Z,13.90
2022-11-24T21:18:56.289Z,12.70
2022-11-24T21:23:59.041Z,12.30
2022-11-24T21:29:01.800Z,15.30
2022-11-24T21:34:06.128Z,15.50
2022-11-24T21:39:12.790Z,13.40
2022-11-24T21:44:15.772Z,10.60
2022-11-24T21:49:18.593Z,9.20
2022-11-24T21:54:22.269Z,12.30
2022-11-24T21:59:25.374Z,13.30
2022-11-24T22:04:28.088Z,13.90
2022-11-24T22:09:30.808Z,11.10
2022-11-24T22:14:37.541Z,12.40
2022-11-24T22:19:42.997Z,13.30
2022-11-24T22:24:45.741Z,10.60
2022-11-24T22:29:53.874Z,11.10
2022-11-24T22:34:56.991Z,13.70
2022-11-24T22:39:59.744Z,12.90
2022-11-24T22:45:02.928Z,12.00
2022-11-24T22:50:06.493Z,14.70
2022-11-24T22:55:09.232Z,11.00
2022-11-24T23:00:12.924Z,10.80
2022-11-24T23:05:20.560Z,12.20
2022-11-24T23:10:23.722Z,17.10
2022-11-24T23:15:26.513Z,15.30
2022-11-24T23:20:29.288Z,12.10
2022-11-24T23:25:34.094Z,10.00
2022-11-24T23:30:36.904Z,8.60
2022-11-24T23:35:39.779Z,10.20
2022-11-24T23:40:42.524Z,9.40
2022-11-24T23:45:45.365Z,9.30
2022-11-24T23:50:48.140Z,9.50
2022-11-24T23:55:56.987Z,11.50
